createdAt,value
2023-03-12T00:00:41.959Z,97640.58
2023-03-12T00:01:40.230Z,97641.52
2023-03-12T00:02:39.676Z,97628.27
2023-03-12T00:03:40.496Z,97642.14
2023-03-12T00:04:40.320Z,97646.36
2023-03-12T00:05:41.910Z,97638.87
2023-03-12T00:06:41.283Z,97637.16
2023-03-12T00:07:41.602Z,97634
2023-03-12T00:08:42.425Z,97624.66
2023-03-12T00:09:42.559Z,97626.87
2023-03-12T00:10:43.147Z,97631.68
2023-03-12T00:11:43.176Z,97626.36
2023-03-12T00:12:43.778Z,97628.95
2023-03-12T00:13:48.909Z,97632.5
2023-03-12T00:14:46.355Z,97631.72
2023-03-12T00:15:46.609Z,97630.36
2023-03-12T00:16:46.983Z,97633.59
2023-03-12T00:17:47.805Z,97635.05
2023-03-12T00:18:52.846Z,97637.53
2023-03-12T00:19:54.161Z,97636
2023-03-12T00:20:55.616Z,97636.91
2023-03-12T00:21:53.054Z,97632.29
2023-03-12T00:22:53.375Z,97636.26
2023-03-12T00:23:53.890Z,97638.16
2023-03-12T00:24:55.937Z,97631.78
2023-03-12T00:25:54.814Z,97636.41
2023-03-12T00:26:55.031Z,97641.78
2023-03-12T00:27:55.458Z,97634.66
2023-03-12T00:28:55.872Z,97634.45
2023-03-12T00:29:56.286Z,97637.49
2023-03-12T00:30:57.283Z,97643.73
2023-03-12T00:31:56.873Z,97637.54
2023-03-12T00:32:57.532Z,97632.59
2023-03-12T00:33:57.842Z,97636.23
2023-03-12T00:34:58.772Z,97634.41
2023-03-12T00:36:00.674Z,97635.88
2023-03-12T00:36:58.905Z,97633.91
2023-03-12T00:37:59.303Z,97638.52
2023-03-12T00:39:00.561Z,97637.62
2023-03-12T00:40:01.049Z,97632.16
2023-03-12T00:41:01.164Z,97639.44
2023-03-12T00:42:01.677Z,97634.77
2023-03-12T00:43:02.007Z,97633.17
2023-03-12T00:44:03.560Z,97635.26
2023-03-12T00:45:02.834Z,97632.86
2023-03-12T00:46:03.202Z,97635.02
2023-03-12T00:47:03.870Z,97633.17
2023-03-12T00:48:04.387Z,97634.95
2023-03-12T00:49:04.796Z,97635.59
2023-03-12T00:50:05.718Z,97640.2
2023-03-12T00:51:05.542Z,97630.17
2023-03-12T00:52:06.051Z,97632.42
2023-03-12T00:53:05.926Z,97631.86
2023-03-12T00:54:06.373Z,97631.19
2023-03-12T00:55:07.358Z,97633.2
2023-03-12T00:56:07.717Z,97625.5
2023-03-12T00:57:07.722Z,97626.75
2023-03-12T00:58:07.726Z,97626.14
2023-03-12T00:59:08.359Z,97627.77
2023-03-12T01:00:10.643Z,97628.65
2023-03-12T01:01:09.976Z,97629.49
2023-03-12T01:02:09.661Z,97635.04
2023-03-12T01:03:09.913Z,97641.14
2023-03-12T01:04:10.423Z,97631.27
2023-03-12T01:05:12.591Z,97635.23
2023-03-12T01:06:11.055Z,97631.82
2023-03-12T01:07:11.373Z,97633.95
2023-03-12T01:08:12.211Z,97636.23
2023-03-12T01:09:12.415Z,97645.84
2023-03-12T01:10:15.456Z,97644.8
2023-03-12T01:11:18.063Z,97642.19
2023-03-12T01:12:15.259Z,97637.77
2023-03-12T01:13:16.014Z,97640.46
2023-03-12T01:14:16.221Z,97635.86
2023-03-12T01:15:18.290Z,97641.62
2023-03-12T01:16:17.117Z,97643.02
2023-03-12T01:17:17.393Z,97648.39
2023-03-12T01:18:18.422Z,97644.33
2023-03-12T01:19:19.544Z,97644.78
2023-03-12T01:20:19.617Z,97644.98
2023-03-12T01:21:19.661Z,97644.92
2023-03-12T01:22:20.144Z,97645.05
2023-03-12T01:23:20.605Z,97648.48
2023-03-12T01:24:20.922Z,97643.78
2023-03-12T01:25:21.331Z,97647.11
2023-03-12T01:26:21.741Z,97647.67
2023-03-12T01:27:22.161Z,97646.7
2023-03-12T01:28:24.014Z,97643.94
2023-03-12T01:29:22.852Z,97648.3
2023-03-12T01:30:23.204Z,97652.64
2023-03-12T01:31:23.611Z,97646.7
2023-03-12T01:32:23.964Z,97650.73
2023-03-12T01:33:24.413Z,97651.61
2023-03-12T01:34:24.872Z,97651.26
2023-03-12T01:35:25.950Z,97651.45
2023-03-12T01:36:28.886Z,97653.62
2023-03-12T01:37:27.560Z,97658.75
2023-03-12T01:38:26.952Z,97659.78
2023-03-12T01:39:27.058Z,97667.11
2023-03-12T01:40:27.378Z,97668.23
2023-03-12T01:41:29.516Z,97656.88
2023-03-12T01:42:28.312Z,97656.38
2023-03-12T01:43:31.688Z,97659.19
2023-03-12T01:44:30.173Z,97667.1
2023-03-12T01:46:39.386Z,97662.34
2023-03-12T01:47:36.841Z,97668.22
2023-03-12T01:48:42.774Z,97665.55
2023-03-12T01:49:40.328Z,97672.09
2023-03-12T01:50:40.534Z,97658.92
2023-03-12T01:51:50.271Z,97665.05
2023-03-12T01:52:42.700Z,97661.05
2023-03-12T01:53:47.209Z,97662.95
2023-03-12T01:55:48.150Z,97668.23
2023-03-12T01:56:49.082Z,97667.92
2023-03-12T01:58:56.276Z,97671.31
2023-03-12T02:00:56.521Z,97669.38
2023-03-12T02:01:57.517Z,97666.3
2023-03-12T02:04:02.300Z,97667.06
2023-03-12T02:08:13.337Z,97667.16
2023-03-12T02:12:19.901Z,97673.64
2023-03-12T02:13:20.630Z,97673.77
2023-03-12T02:14:20.937Z,97674.5
2023-03-12T02:15:21.055Z,97673.3
2023-03-12T02:16:21.602Z,97671.72
2023-03-12T02:17:21.908Z,97673.79
2023-03-12T02:18:22.298Z,97672.17
2023-03-12T02:21:27.541Z,97672.88
2023-03-12T02:22:25.288Z,97678.87
2023-03-12T02:24:38.614Z,97683.36
2023-03-12T02:25:41.083Z,97677.86
2023-03-12T02:26:35.764Z,97683.89
2023-03-12T02:27:37.005Z,97684.7
2023-03-12T02:28:36.390Z,97687.38
2023-03-12T02:29:37.526Z,97685.01
2023-03-12T02:30:36.907Z,97676.52
2023-03-12T02:31:43.094Z,97687.77
2023-03-12T02:32:38.786Z,97677.42
2023-03-12T02:33:36.216Z,97680.9
2023-03-12T02:34:36.447Z,97679.94
2023-03-12T02:35:37.511Z,97681.75
2023-03-12T02:36:37.893Z,97680.86
2023-03-12T02:38:45.189Z,97686.65
2023-03-12T02:39:44.963Z,97684.62
2023-03-12T02:40:47.741Z,97693.31
2023-03-12T02:42:47.446Z,97691.81
2023-03-12T02:44:51.974Z,97697.52
2023-03-12T02:45:55.589Z,97695.93
2023-03-12T02:46:56.072Z,97702.27
2023-03-12T02:47:54.610Z,97700.73
2023-03-12T02:48:55.241Z,97695.88
2023-03-12T02:49:54.151Z,97705.32
2023-03-12T02:50:54.560Z,97701.75
2023-03-12T02:51:54.946Z,97702.72
2023-03-12T02:52:55.402Z,97706.67
2023-03-12T02:53:55.840Z,97698.52
2023-03-12T02:54:56.121Z,97710.88
2023-03-12T02:55:56.441Z,97707.33
2023-03-12T02:56:57.271Z,97704.23
2023-03-12T02:57:57.382Z,97708.73
2023-03-12T02:58:58.098Z,97711.17
2023-03-12T02:59:58.218Z,97707.94
2023-03-12T03:00:58.578Z,97713.59
2023-03-12T03:02:00.213Z,97709.99
2023-03-12T03:03:00.178Z,97716.79
2023-03-12T03:04:00.862Z,97702.72
2023-03-12T03:05:00.090Z,97709.64
2023-03-12T03:06:00.507Z,97710.28
2023-03-12T03:07:01.504Z,97712.57
2023-03-12T03:08:01.332Z,97715.23
2023-03-12T03:09:02.072Z,97713.49
2023-03-12T03:10:02.676Z,97710.2
2023-03-12T03:11:02.380Z,97715.88
2023-03-12T03:12:03.005Z,97717.26
2023-03-12T03:13:03.208Z,97712.66
2023-03-12T03:14:03.529Z,97719.72
2023-03-12T03:15:04.947Z,97712.96
2023-03-12T03:16:05.057Z,97706.17
2023-03-12T03:17:05.160Z,97709.64
2023-03-12T03:18:05.463Z,97714.06
2023-03-12T03:19:06.270Z,97710.55
2023-03-12T03:20:08.030Z,97714.09
2023-03-12T03:21:08.615Z,97708.38
2023-03-12T03:22:06.644Z,97707.09
2023-03-12T03:23:07.311Z,97706.63
2023-03-12T03:24:08.112Z,97709.81
2023-03-12T03:25:10.150Z,97712.82
2023-03-12T03:26:08.445Z,97709
2023-03-12T03:27:08.734Z,97707.97
2023-03-12T03:28:09.055Z,97713.18
2023-03-12T03:29:09.568Z,97707.92
2023-03-12T03:30:10.909Z,97714.99
2023-03-12T03:31:10.236Z,97713.5
2023-03-12T03:32:10.521Z,97722.3
2023-03-12T03:33:10.928Z,97721.07
2023-03-12T03:34:11.925Z,97717.91
2023-03-12T03:35:12.481Z,97723.3
2023-03-12T03:36:14.120Z,97723.37
2023-03-12T03:37:12.897Z,97726.55
2023-03-12T03:38:13.582Z,97731.31
2023-03-12T03:39:13.825Z,97726.34
2023-03-12T03:40:14.036Z,97728.93
2023-03-12T03:41:14.556Z,97729.27
2023-03-12T03:42:14.876Z,97730.95
2023-03-12T03:43:15.390Z,97732.58
2023-03-12T03:44:15.705Z,97728.52
2023-03-12T03:45:16.340Z,97729.88
2023-03-12T03:46:16.933Z,97735.2
2023-03-12T03:47:16.852Z,97733.97
2023-03-12T03:48:17.885Z,97733.8
2023-03-12T03:49:17.683Z,97731.92
2023-03-12T03:50:18.206Z,97731.53
2023-03-12T03:51:18.918Z,97730.9
2023-03-12T03:52:18.737Z,97733.72
2023-03-12T03:53:19.980Z,97731.13
2023-03-12T03:54:19.979Z,97735.09
2023-03-12T03:55:19.792Z,97734.12
2023-03-12T03:56:20.604Z,97729.9
2023-03-12T03:57:20.725Z,97731.78
2023-03-12T03:58:21.430Z,97734.06
2023-03-12T03:59:21.548Z,97736.34
2023-03-12T04:00:22.265Z,97735.42
2023-03-12T04:01:22.287Z,97739.11
2023-03-12T04:02:22.790Z,97740.66
2023-03-12T04:03:23.072Z,97734.62
2023-03-12T04:04:23.421Z,97738.23
2023-03-12T04:05:24.030Z,97739.77
2023-03-12T04:06:24.161Z,97742.28
2023-03-12T04:07:24.515Z,97743.16
2023-03-12T04:08:25.080Z,97745.45
2023-03-12T04:09:25.201Z,97746.95
2023-03-12T04:10:25.632Z,97750.47
2023-03-12T04:11:26.326Z,97750.85
2023-03-12T04:12:26.409Z,97751.25
2023-03-12T04:13:26.865Z,97754.51
2023-03-12T04:14:27.182Z,97756.31
2023-03-12T04:15:27.595Z,97758.82
2023-03-12T04:16:28.559Z,97761
2023-03-12T04:17:28.324Z,97757.25
2023-03-12T04:18:28.896Z,97761.62
2023-03-12T04:19:29.158Z,97761.77
2023-03-12T04:20:29.571Z,97764.46
2023-03-12T04:21:29.849Z,97765.17
2023-03-12T04:22:30.306Z,97764.12
2023-03-12T04:23:30.718Z,97768.16
2023-03-12T04:24:30.990Z,97770.42
2023-03-12T04:25:31.551Z,97772.95
2023-03-12T04:26:31.868Z,97771.19
2023-03-12T04:27:32.244Z,97771.66
2023-03-12T04:28:34.230Z,97779.95
2023-03-12T04:29:33.014Z,97774.27
2023-03-12T04:30:33.636Z,97775
2023-03-12T04:31:33.861Z,97774.09
2023-03-12T04:32:34.350Z,97776.44
2023-03-12T04:33:37.960Z,97774.9
2023-03-12T04:34:35.306Z,97780.34
2023-03-12T04:35:36.095Z,97778.62
2023-03-12T04:36:39.406Z,97778.9
2023-03-12T04:37:36.729Z,97785.01
2023-03-12T04:38:37.265Z,97778.83
2023-03-12T04:39:37.584Z,97776.64
2023-03-12T04:40:38.109Z,97783.14
2023-03-12T04:41:39.158Z,97779.73
2023-03-12T04:42:39.855Z,97779.3
2023-03-12T04:43:39.869Z,97782.05
2023-03-12T04:44:40.392Z,97781.48
2023-03-12T04:45:40.504Z,97782.48
2023-03-12T04:46:41.400Z,97784.25
2023-03-12T04:47:42.355Z,97783.69
2023-03-12T04:48:41.837Z,97783.6
2023-03-12T04:49:42.382Z,97787.47
2023-03-12T04:50:42.424Z,97781.47
2023-03-12T04:51:43.101Z,97790.62
2023-03-12T04:52:43.207Z,97787.8
2023-03-12T04:53:43.764Z,97786.22
2023-03-12T04:54:47.836Z,97786.14
2023-03-12T04:55:45.485Z,97789.79
2023-03-12T04:56:45.790Z,97788.19
2023-03-12T04:57:46.324Z,97791.75
2023-03-12T04:58:46.733Z,97789
2023-03-12T04:59:47.100Z,97789.75
2023-03-12T05:00:49.017Z,97793.47
2023-03-12T05:01:47.985Z,97791.62
2023-03-12T05:02:48.401Z,97790.14
2023-03-12T05:03:48.776Z,97793.81
2023-03-12T05:04:49.145Z,97793.16
2023-03-12T05:05:49.439Z,97800.12
2023-03-12T05:06:49.861Z,97804.4
2023-03-12T05:07:50.175Z,97799.09
2023-03-12T05:08:51.313Z,97801.47
2023-03-12T05:09:51.218Z,97803.5
2023-03-12T05:10:51.316Z,97805.34
2023-03-12T05:11:51.744Z,97806.06
2023-03-12T05:12:52.121Z,97803.88
2023-03-12T05:13:52.776Z,97808.51
2023-03-12T05:14:52.941Z,97812.05
2023-03-12T05:15:53.581Z,97808.79
2023-03-12T05:16:53.668Z,97807.08
2023-03-12T05:17:54.948Z,97809.3
2023-03-12T05:18:54.549Z,97804.17
2023-03-12T05:19:55.573Z,97807.67
2023-03-12T05:21:59.092Z,97809.78
2023-03-12T05:22:59.511Z,97808.56
2023-03-12T05:24:01.232Z,97806.78
2023-03-12T05:25:00.341Z,97805.12
2023-03-12T05:26:01.054Z,97804.45
2023-03-12T05:27:01.008Z,97805.61
2023-03-12T05:28:01.462Z,97805.48
2023-03-12T05:29:02.394Z,97805.98
2023-03-12T05:30:03.030Z,97807.48
2023-03-12T05:31:09.441Z,97808.45
2023-03-12T05:32:07.599Z,97805.23
2023-03-12T05:33:07.398Z,97807.31
2023-03-12T05:34:07.659Z,97803.23
2023-03-12T05:35:08.791Z,97810.12
2023-03-12T05:36:09.366Z,97805.11
2023-03-12T05:37:09.936Z,97803.92
2023-03-12T05:38:09.414Z,97804.22
2023-03-12T05:39:09.725Z,97803.55
2023-03-12T05:40:12.187Z,97807.66
2023-03-12T05:42:15.483Z,97805.84
2023-03-12T05:43:15.192Z,97810.14
2023-03-12T05:44:15.702Z,97808.11
2023-03-12T05:45:16.225Z,97813.66
2023-03-12T05:46:16.490Z,97816.26
2023-03-12T05:47:17.065Z,97815.44
2023-03-12T05:48:17.108Z,97812.47
2023-03-12T05:49:18.203Z,97812.66
2023-03-12T05:50:18.513Z,97813.23
2023-03-12T05:51:18.389Z,97814.6
2023-03-12T05:52:18.725Z,97813.59
2023-03-12T05:53:19.044Z,97812.81
2023-03-12T05:54:19.766Z,97815.66
2023-03-12T05:55:19.978Z,97818.17
2023-03-12T05:56:20.347Z,97818.58
2023-03-12T05:57:20.772Z,97816.84
2023-03-12T05:58:21.880Z,97813.08
2023-03-12T05:59:21.647Z,97818.08
2023-03-12T06:00:22.546Z,97819.24
2023-03-12T06:01:25.409Z,97822.48
2023-03-12T06:02:23.025Z,97818.07
2023-03-12T06:03:23.411Z,97820.36
2023-03-12T06:04:23.511Z,97820.24
2023-03-12T06:05:24.255Z,97826.73
2023-03-12T06:06:24.685Z,97816.96
2023-03-12T06:07:25.065Z,97824.73
2023-03-12T06:08:25.418Z,97824.71
2023-03-12T06:09:25.595Z,97827.91
2023-03-12T06:10:27.963Z,97826.6
2023-03-12T06:11:26.330Z,97827.66
2023-03-12T06:12:26.747Z,97828.13
2023-03-12T06:13:27.358Z,97831.86
2023-03-12T06:14:27.575Z,97828.66
2023-03-12T06:15:28.104Z,97831.64
2023-03-12T06:16:28.656Z,97837.16
2023-03-12T06:17:30.044Z,97836.76
2023-03-12T06:18:29.198Z,97838.52
2023-03-12T06:19:29.644Z,97840.03
2023-03-12T06:20:30.141Z,97840.57
2023-03-12T06:21:32.743Z,97841.12
2023-03-12T06:22:30.998Z,97840.84
2023-03-12T06:23:31.214Z,97848.28
2023-03-12T06:24:32.348Z,97843.86
2023-03-12T06:25:32.759Z,97850.98
2023-03-12T06:26:33.076Z,97848.53
2023-03-12T06:27:33.836Z,97852.04
2023-03-12T06:28:34.422Z,97850.92
2023-03-12T06:29:34.223Z,97850.14
2023-03-12T06:30:34.742Z,97848.82
2023-03-12T06:31:38.116Z,97855.54
2023-03-12T06:32:36.397Z,97854.81
2023-03-12T06:33:36.500Z,97854.16
2023-03-12T06:34:38.460Z,97857.91
2023-03-12T06:35:37.519Z,97859.42
2023-03-12T06:36:37.745Z,97857.28
2023-03-12T06:37:41.550Z,97860.98
2023-03-12T06:38:41.017Z,97859.23
2023-03-12T06:39:39.644Z,97864.61
2023-03-12T06:40:40.134Z,97866.12
2023-03-12T06:41:40.046Z,97864.22
2023-03-12T06:42:40.453Z,97867.73
2023-03-12T06:43:41.583Z,97876.51
2023-03-12T06:44:41.392Z,97877.81
2023-03-12T06:45:41.695Z,97873.62
2023-03-12T06:46:42.880Z,97871.05
2023-03-12T06:47:42.548Z,97876.42
2023-03-12T06:48:43.675Z,97868.25
2023-03-12T06:49:43.370Z,97878.12
2023-03-12T06:50:43.956Z,97876.16
2023-03-12T06:51:44.184Z,97867.42
2023-03-12T06:52:44.615Z,97872.17
2023-03-12T06:53:45.807Z,97873.14
2023-03-12T06:54:45.304Z,97869.52
2023-03-12T06:55:46.697Z,97877.28
2023-03-12T06:56:46.201Z,97880.64
2023-03-12T06:57:46.596Z,97885.38
2023-03-12T06:58:46.923Z,97881.91
2023-03-12T06:59:50.373Z,97886.45
2023-03-12T07:00:48.169Z,97880.91
2023-03-12T07:01:49.084Z,97887.11
2023-03-12T07:02:48.780Z,97888.37
2023-03-12T07:03:49.091Z,97882.73
2023-03-12T07:04:49.665Z,97892.09
2023-03-12T07:05:51.423Z,97891.36
2023-03-12T07:06:50.474Z,97890.75
2023-03-12T07:07:51.525Z,97893.66
2023-03-12T07:08:52.112Z,97895.82
2023-03-12T07:09:51.697Z,97894.36
2023-03-12T07:10:52.132Z,97890.17
2023-03-12T07:11:52.449Z,97888.75
2023-03-12T07:12:52.749Z,97890.24
2023-03-12T07:13:53.268Z,97887.14
2023-03-12T07:14:53.607Z,97886.52
2023-03-12T07:15:54.232Z,97881.42
2023-03-12T07:16:55.636Z,97887.78
2023-03-12T07:17:54.804Z,97887.47
2023-03-12T07:18:55.158Z,97885.95
2023-03-12T07:19:55.664Z,97882.85
2023-03-12T07:20:56.188Z,97896.14
2023-03-12T07:21:57.272Z,97895.33
2023-03-12T07:22:57.020Z,97896.2
2023-03-12T07:23:57.279Z,97904.61
2023-03-12T07:24:57.859Z,97895.3
2023-03-12T07:25:58.165Z,97899.03
2023-03-12T07:26:58.371Z,97902.05
2023-03-12T07:27:58.902Z,97901.69
2023-03-12T07:28:59.196Z,97909.65
2023-03-12T07:29:59.725Z,97900.72
2023-03-12T07:31:02.599Z,97909.45
2023-03-12T07:32:00.748Z,97898.33
2023-03-12T07:33:05.571Z,97916.52
2023-03-12T07:34:03.232Z,97918.43
2023-03-12T07:35:05.598Z,97913.1
2023-03-12T07:36:05.265Z,97912.63
2023-03-12T07:37:05.516Z,97909.42
2023-03-12T07:38:06.816Z,97911.8
2023-03-12T07:39:05.723Z,97911.14
2023-03-12T07:40:07.830Z,97915.61
2023-03-12T07:41:06.582Z,97918.52
2023-03-12T07:42:07.441Z,97920.5
2023-03-12T07:43:07.431Z,97914.58
2023-03-12T07:44:08.143Z,97917.79
2023-03-12T07:45:08.903Z,97914.58
2023-03-12T07:46:08.614Z,97914.1
2023-03-12T07:47:22.848Z,97918.14
2023-03-12T07:48:10.761Z,97918.95
2023-03-12T07:49:11.123Z,97919.88
2023-03-12T07:50:12.540Z,97918.67
2023-03-12T07:51:12.761Z,97919.01
2023-03-12T07:52:12.291Z,97913.78
2023-03-12T07:53:12.879Z,97914.27
2023-03-12T07:54:13.102Z,97925.52
2023-03-12T07:55:14.042Z,97915.71
2023-03-12T07:56:14.211Z,97921.81
2023-03-12T07:57:14.589Z,97929.03
2023-03-12T07:58:16.482Z,97914.86
2023-03-12T07:59:15.386Z,97929.06
2023-03-12T08:00:16.265Z,97938.34
2023-03-12T08:01:16.285Z,97930.62
2023-03-12T08:02:16.429Z,97934.98
2023-03-12T08:03:17.162Z,97925.74
2023-03-12T08:04:17.235Z,97936.94
2023-03-12T08:05:17.977Z,97940.78
2023-03-12T08:06:18.156Z,97942.14
2023-03-12T08:07:18.577Z,97924.25
2023-03-12T08:08:18.849Z,97931.57
2023-03-12T08:09:19.332Z,97937.54
2023-03-12T08:10:21.167Z,97928.1
2023-03-12T08:11:20.985Z,97945.34
2023-03-12T08:12:20.492Z,97943.69
2023-03-12T08:13:21.314Z,97940.26
2023-03-12T08:14:21.326Z,97942.94
2023-03-12T08:15:21.851Z,97944.28
2023-03-12T08:16:22.180Z,97943.47
2023-03-12T08:17:22.456Z,97944.92
2023-03-12T08:18:23.301Z,97939.91
2023-03-12T08:19:23.400Z,97944.71
2023-03-12T08:20:23.713Z,97945.25
2023-03-12T08:21:24.434Z,97950.78
2023-03-12T08:22:24.439Z,97949.75
2023-03-12T08:23:25.264Z,97944.84
2023-03-12T08:24:25.471Z,97944.78
2023-03-12T08:25:25.799Z,97946.34
2023-03-12T08:26:26.221Z,97939.59
2023-03-12T08:27:26.526Z,97935.72
2023-03-12T08:28:27.347Z,97944.68
2023-03-12T08:29:27.550Z,97941.38
2023-03-12T08:30:30.165Z,97936.89
2023-03-12T08:31:28.847Z,97958.09
2023-03-12T08:32:29.013Z,97937.17
2023-03-12T08:33:28.914Z,97943.88
2023-03-12T08:34:29.509Z,97946.96
2023-03-12T08:35:30.244Z,97937.53
2023-03-12T08:36:30.469Z,97940.66
2023-03-12T08:37:30.890Z,97943.36
2023-03-12T08:38:32.128Z,97946.5
2023-03-12T08:39:31.660Z,97940.27
2023-03-12T08:40:31.943Z,97942.98
2023-03-12T08:41:32.352Z,97937.96
2023-03-12T08:42:32.660Z,97945.5
2023-03-12T08:43:33.288Z,97950.11
2023-03-12T08:44:33.810Z,97950.57
2023-03-12T08:45:33.945Z,97959.18
2023-03-12T08:46:34.443Z,97967.8
2023-03-12T08:47:35.051Z,97957.73
2023-03-12T08:48:35.068Z,97958.54
2023-03-12T08:49:35.433Z,97953.98
2023-03-12T08:50:37.527Z,97968.62
2023-03-12T08:51:37.125Z,97961.43
2023-03-12T08:52:36.738Z,97951.66
2023-03-12T08:53:37.285Z,97961.75
2023-03-12T08:54:37.604Z,97954.44
2023-03-12T08:55:37.977Z,97956.19
2023-03-12T08:56:41.474Z,97956.89
2023-03-12T08:57:39.999Z,97954.83
2023-03-12T08:58:39.336Z,97959.9
2023-03-12T08:59:39.645Z,97964.16
2023-03-12T09:00:40.166Z,97963.11
2023-03-12T09:01:43.643Z,97965.28
2023-03-12T09:02:43.934Z,97969.02
2023-03-12T09:03:42.037Z,97967.67
2023-03-12T09:04:42.144Z,97969.69
2023-03-12T09:05:43.061Z,97968.64
2023-03-12T09:06:43.376Z,97965.64
2023-03-12T09:07:43.344Z,97975.2
2023-03-12T09:08:45.039Z,97976.78
2023-03-12T09:09:44.620Z,97974.19
2023-03-12T09:10:50.272Z,97970.3
2023-03-12T09:11:47.721Z,97967.26
2023-03-12T09:12:48.129Z,97973.83
2023-03-12T09:14:28.132Z,97972.31
2023-03-12T09:15:03.092Z,97966.52
2023-03-12T09:15:51.164Z,97967.02
2023-03-12T09:16:51.850Z,97974.07
2023-03-12T09:17:52.565Z,97965.17
2023-03-12T09:18:52.878Z,97966.23
2023-03-12T09:19:52.972Z,97972.06
2023-03-12T09:20:53.401Z,97976.57
2023-03-12T09:21:54.011Z,97969.02
2023-03-12T09:22:54.098Z,97965.37
2023-03-12T09:23:54.677Z,97968.75
2023-03-12T09:24:55.375Z,97966.57
2023-03-12T09:25:55.861Z,97962.47
2023-03-12T09:26:58.675Z,97964.7
2023-03-12T09:27:56.168Z,97968.53
2023-03-12T09:28:56.420Z,97967.78
2023-03-12T09:30:00.456Z,97960.92
2023-03-12T09:31:02.151Z,97966.62
2023-03-12T09:31:59.619Z,97969.84
2023-03-12T09:32:59.990Z,97972.08
2023-03-12T09:34:00.657Z,97967.47
2023-03-12T09:35:00.559Z,97968.99
2023-03-12T09:36:01.174Z,97977.05
2023-03-12T09:37:01.293Z,97968.47
2023-03-12T09:38:01.451Z,97970.06
2023-03-12T09:39:02.734Z,97974.67
2023-03-12T09:40:03.351Z,97976.41
2023-03-12T09:41:05.513Z,97976.84
2023-03-12T09:42:06.588Z,97974.38
2023-03-12T09:43:09.827Z,97979.41
2023-03-12T09:46:26.756Z,97989.66
2023-03-12T09:47:30.133Z,97979.49
2023-03-12T09:48:34.240Z,97985.59
2023-03-12T09:53:46.259Z,97988.23
2023-03-12T09:54:52.707Z,97984.53
2023-03-12T09:55:49.597Z,97986.77
2023-03-12T09:56:47.283Z,97990.88
2023-03-12T09:57:49.542Z,97998.11
2023-03-12T09:58:49.867Z,97992.37
2023-03-12T09:59:47.922Z,97997.51
2023-03-12T10:00:48.353Z,97989.64
2023-03-12T10:01:54.809Z,97993.47
2023-03-12T10:27:52.076Z,97997.08
2023-03-12T10:29:56.226Z,98001.45
2023-03-12T10:33:02.896Z,98013.77
2023-03-12T10:34:01.571Z,98013.45
2023-03-12T10:35:04.845Z,98020
2023-03-12T10:36:06.337Z,98010.81
2023-03-12T10:38:13.370Z,98004.3
2023-03-12T10:39:16.051Z,98010.65
2023-03-12T10:43:19.546Z,98010.39
2023-03-12T10:44:25.084Z,98015.05
2023-03-12T10:48:27.067Z,98021.25
2023-03-12T10:50:34.351Z,98025.81
2023-03-12T10:51:31.591Z,98044.55
2023-03-12T10:52:32.005Z,98022.86
2023-03-12T10:54:38.158Z,98026.78
2023-03-12T10:55:36.024Z,98028.3
2023-03-12T10:57:41.787Z,98022.32
2023-03-12T10:58:44.033Z,98027.98
2023-03-12T10:59:46.684Z,98023.28
2023-03-12T11:01:49.869Z,98033.42
2023-03-12T11:02:55.088Z,98020.29
2023-03-12T11:04:54.926Z,98010.85
2023-03-12T11:05:59.825Z,98019.75
2023-03-12T11:08:01.597Z,98028.83
2023-03-12T11:09:16.794Z,98030.55
2023-03-12T11:11:06.228Z,98022.75
2023-03-12T11:16:27.195Z,98031.12
2023-03-12T11:17:23.429Z,98032.53
2023-03-12T11:19:31.305Z,98045.48
2023-03-12T11:20:30.353Z,98041.12
2023-03-12T11:21:30.667Z,98043.59
2023-03-12T11:22:34.720Z,98049.05
2023-03-12T11:23:32.113Z,98047.83
2023-03-12T11:24:32.432Z,98041.19
2023-03-12T11:25:32.628Z,98054.11
2023-03-12T11:27:51.118Z,98056.47
2023-03-12T11:28:44.844Z,98047.12
2023-03-12T11:29:48.911Z,98052.11
2023-03-12T11:30:47.778Z,98049.25
2023-03-12T11:32:50.661Z,98053.32
2023-03-12T11:33:53.167Z,98060.34
2023-03-12T11:34:51.806Z,98058.49
2023-03-12T12:26:09.213Z,98097.12
2023-03-12T12:36:28.261Z,98100.62
2023-03-12T12:41:50.138Z,98102.3
2023-03-12T12:43:57.127Z,98102.58
2023-03-12T12:44:57.825Z,98112.48
2023-03-12T12:45:59.695Z,98108.19
2023-03-12T12:47:03.974Z,98107.2
2023-03-12T12:50:04.742Z,98116.24
2023-03-12T12:51:08.778Z,98121.62
2023-03-12T13:01:40.916Z,98130.61
2023-03-12T13:02:43.593Z,98129.98
2023-03-12T13:03:42.176Z,98128.32
2023-03-12T13:04:41.902Z,98127.58
2023-03-12T13:07:47.025Z,98131.02
2023-03-12T13:09:51.623Z,98134.72
2023-03-12T13:11:55.581Z,98131.02
2023-03-12T13:12:56.792Z,98151.77
2023-03-12T13:14:58.539Z,98150.15
2023-03-12T13:18:18.351Z,98156.98
2023-03-12T13:20:19.187Z,98147.78
2023-03-12T13:27:41.109Z,98164.48
2023-03-12T13:29:40.957Z,98163.64
2023-03-12T13:31:41.809Z,98177.51
2023-03-12T13:34:46.949Z,98173.68
2023-03-12T13:36:52.303Z,98177.92
2023-03-12T13:41:00.181Z,98183.87
2023-03-12T13:42:01.186Z,98180.36
2023-03-12T13:48:18.138Z,98195.3
2023-03-12T13:49:18.473Z,98185.06
2023-03-12T13:50:17.098Z,98188.34
2023-03-12T13:51:21.661Z,98196.91
2023-03-12T13:54:28.008Z,98199.31
2023-03-12T13:55:29.057Z,98201.68
2023-03-12T13:56:29.563Z,98203.23
2023-03-12T13:58:27.900Z,98207.61
2023-03-12T13:59:29.993Z,98198.65
2023-03-12T14:00:38.291Z,98211.41
2023-03-12T14:01:36.798Z,98214.1
2023-03-12T14:02:37.174Z,98211.19
2023-03-12T14:03:42.460Z,98213.88
2023-03-12T14:04:39.589Z,98218.28
2023-03-12T14:17:05.431Z,98231.03
2023-03-12T14:19:06.682Z,98221.36
2023-03-12T14:21:15.451Z,98244.21
2023-03-12T14:22:14.470Z,98237.88
2023-03-12T14:23:17.460Z,98231.97
2023-03-12T14:26:27.476Z,98234.09
2023-03-12T14:27:25.726Z,98231.98
2023-03-12T14:28:24.558Z,98231.47
2023-03-12T14:30:32.268Z,98236.53
2023-03-12T14:31:25.915Z,98226.88
2023-03-12T14:32:32.609Z,98230.5
2023-03-12T14:34:38.812Z,98240.66
2023-03-12T14:37:44.133Z,98241.88
2023-03-12T14:38:44.717Z,98248.41
2023-03-12T14:42:52.809Z,98251.49
2023-03-12T14:43:54.142Z,98254.2
2023-03-12T14:47:01.025Z,98256.03
2023-03-12T14:47:59.403Z,98253.98
2023-03-12T14:48:59.683Z,98260.95
2023-03-12T14:50:00.205Z,98255.88
2023-03-12T14:51:01.581Z,98257.23
2023-03-12T14:52:00.685Z,98258.75
2023-03-12T14:56:44.614Z,98269.14
2023-03-12T14:57:42.157Z,98272.07
2023-03-12T14:58:45.759Z,98277.4
2023-03-12T14:59:55.788Z,98275.67
2023-03-12T15:00:57.433Z,98280.27
2023-03-12T15:01:50.857Z,98276.95
2023-03-12T15:02:52.649Z,98276.1
2023-03-12T15:03:57.395Z,98279
2023-03-12T15:04:57.893Z,98282.92
2023-03-12T15:05:56.340Z,98290.55
2023-03-12T15:06:59.843Z,98284.36
2023-03-12T15:08:03.050Z,98284.25
2023-03-12T15:09:03.835Z,98284.8
2023-03-12T15:10:06.373Z,98292.62
2023-03-12T15:11:04.274Z,98292.94
2023-03-12T15:12:08.581Z,98288.03
2023-03-12T15:13:06.327Z,98297.92
2023-03-12T15:14:14.447Z,98300.79
2023-03-12T15:15:10.961Z,98293.46
2023-03-12T15:16:09.158Z,98297.91
2023-03-12T15:17:14.975Z,98305.23
2023-03-12T15:19:21.732Z,98303.41
2023-03-12T15:20:21.022Z,98311.22
2023-03-12T15:21:21.348Z,98308.88
2023-03-12T15:22:22.572Z,98312.46
2023-03-12T15:23:21.618Z,98309
2023-03-12T15:24:21.450Z,98313.8
2023-03-12T15:25:32.019Z,98322.26
2023-03-12T15:26:30.821Z,98321.69
2023-03-12T15:27:33.541Z,98320.12
2023-03-12T15:28:33.102Z,98323.99